Time;durP1;ratioP1;P1;durP2;ratioP2;P2;SDS_P1;SDS_P2;PMS_P1;PMS_P2;Temp;Humidity;BMP_temperature;BMP_pressure;BME280_temperature;BME280_humidity;BME280_pressure;Samples;Min_cycle;Max_cycle;Signal;HPM_P1;HPM_P2
2022/09/16 00:00:45;;;;;;;7.88;3.47;;;;;;;20.82;56.99;94111.94;5131829;27;20261;-74
2022/09/16 00:03:13;;;;;;;5.70;2.42;;;;;;;20.66;57.91;94101.44;5131796;27;20231;-73
2022/09/16 00:05:42;;;;;;;7.07;2.60;;;;;;;20.67;57.53;94104.97;5131141;27;20200;-74
2022/09/16 00:08:09;;;;;;;5.75;1.92;;;;;;;20.50;58.83;94121.19;5130942;27;20204;-74
2022/09/16 00:10:36;;;;;;;5.38;1.95;;;;;;;20.11;60.43;94112.34;5130927;27;20748;-74
2022/09/16 00:13:03;;;;;;;5.43;1.90;;;;;;;19.91;61.10;94111.28;5117058;27;20201;-74
2022/09/16 00:15:30;;;;;;;3.72;2.30;;;;;;;19.78;61.17;94111.72;5131349;27;20193;-74
2022/09/16 00:17:58;;;;;;;5.25;1.58;;;;;;;19.83;61.66;94113.25;5131001;27;20220;-72
2022/09/16 00:20:26;;;;;;;7.10;1.90;;;;;;;19.88;61.09;94116.41;5130918;27;20292;-73
2022/09/16 00:22:53;;;;;;;3.58;1.60;;;;;;;19.92;60.47;94121.09;5130754;27;20205;-73
2022/09/16 00:25:20;;;;;;;6.13;1.63;;;;;;;19.80;61.27;94125.09;5130943;27;20265;-74
2022/09/16 00:27:48;;;;;;;9.48;1.50;;;;;;;19.70;61.36;94132.16;5130640;27;20197;-74
2022/09/16 00:30:15;;;;;;;6.45;1.70;;;;;;;19.61;61.73;94131.81;5131157;27;20284;-73
2022/09/16 00:32:42;;;;;;;4.47;1.60;;;;;;;19.58;62.07;94129.06;5131224;27;20200;-73
2022/09/16 00:35:10;;;;;;;6.97;2.60;;;;;;;19.52;62.24;94115.75;5130653;27;20260;-73
2022/09/16 00:37:38;;;;;;;6.68;1.98;;;;;;;19.57;63.15;94117.28;5130175;27;20274;-73
2022/09/16 00:40:06;;;;;;;9.07;2.45;;;;;;;19.50;62.89;94095.34;5130826;27;20209;-73
2022/09/16 00:42:37;;;;;;;4.43;1.80;;;;;;;19.39;62.53;94094.56;5131217;27;20284;-73
2022/09/16 00:45:11;;;;;;;5.68;1.85;;;;;;;19.43;62.39;94109.03;5130395;27;20204;-73
2022/09/16 00:47:42;;;;;;;2.80;1.42;;;;;;;19.83;60.31;94114.06;5131166;27;20197;-74
2022/09/16 00:50:16;;;;;;;11.80;2.47;;;;;;;19.93;60.11;94111.69;5130731;27;20240;-72
2022/09/16 00:52:43;;;;;;;6.78;2.22;;;;;;;20.11;60.18;94110.38;5130981;27;20281;-72
2022/09/16 00:55:15;;;;;;;6.07;2.08;;;;;;;19.98;60.88;94119.50;5130871;28;20627;-72
2022/09/16 00:57:42;;;;;;;7.03;2.58;;;;;;;19.77;61.35;94123.13;5130463;28;20189;-73
2022/09/16 01:00:12;;;;;;;6.43;2.10;;;;;;;19.75;61.39;94128.22;5130905;28;20197;-74
2022/09/16 01:02:41;;;;;;;8.82;2.35;;;;;;;20.04;59.23;94117.91;5130523;27;20193;-72
2022/09/16 01:05:13;;;;;;;7.60;1.88;;;;;;;20.20;59.09;94131.97;5130681;27;20201;-73
2022/09/16 01:07:43;;;;;;;7.63;1.88;;;;;;;20.36;58.24;94121.31;5129723;28;20817;-72
2022/09/16 01:10:12;;;;;;;7.13;1.55;;;;;;;20.57;57.69;94123.91;5129941;28;20192;-73
2022/09/16 01:12:40;;;;;;;3.25;1.95;;;;;;;20.64;57.64;94117.56;5130405;27;20681;-73
2022/09/16 01:15:07;;;;;;;4.07;2.20;;;;;;;20.42;58.63;94122.44;5130148;27;20224;-72
2022/09/16 01:18:00;;;;;;;8.35;2.50;;;;;;;20.09;59.91;94137.50;5130180;27;20228;-74
2022/09/16 01:20:56;;;;;;;10.75;2.45;;;;;;;20.02;59.66;94125.75;5130590;27;20290;-73
2022/09/16 01:24:02;;;;;;;5.78;1.90;;;;;;;20.38;58.19;94121.66;5133692;27;20220;-72
2022/09/16 01:27:26;;;;;;;4.88;1.63;;;;;;;20.28;58.61;94128.00;5124996;27;20181;-72
2022/09/16 01:30:09;;;;;;;4.47;1.60;;;;;;;20.23;59.30;94131.16;5127526;27;20201;-74
2022/09/16 01:32:48;;;;;;;6.57;2.65;;;;;;;20.12;60.26;94135.94;5123081;27;20371;-74
2022/09/16 01:35:26;;;;;;;9.50;2.38;;;;;;;19.98;60.92;94138.75;5134070;27;20737;-74
2022/09/16 01:38:03;;;;;;;2.78;1.90;;;;;;;19.92;60.67;94132.09;5133982;27;20220;-73
2022/09/16 01:40:37;;;;;;;2.28;1.30;;;;;;;20.11;59.43;94123.34;5120327;27;20704;-73
2022/09/16 01:43:15;;;;;;;6.85;1.85;;;;;;;20.18;59.50;94123.34;5134318;27;20193;-74
2022/09/16 01:45:51;;;;;;;9.63;2.28;;;;;;;20.17;59.53;94110.75;5134523;27;20250;-74
2022/09/16 01:48:26;;;;;;;7.50;1.92;;;;;;;20.14;59.31;94106.84;5134062;27;20229;-74
2022/09/16 01:50:59;;;;;;;6.93;3.60;;;;;;;20.22;59.22;94118.59;5134484;27;20200;-74
2022/09/16 01:53:32;;;;;;;7.35;1.98;;;;;;;20.05;60.00;94124.97;5133993;27;20224;-74
2022/09/16 01:56:06;;;;;;;2.40;1.40;;;;;;;20.05;59.58;94103.75;5134068;27;20293;-74
2022/09/16 01:58:41;;;;;;;4.00;1.33;;;;;;;20.13;59.14;94102.53;5133658;27;20193;-74
2022/09/16 02:01:14;;;;;;;5.25;1.90;;;;;;;20.18;59.11;94101.34;5133705;27;20201;-72
2022/09/16 02:03:47;;;;;;;6.28;2.47;;;;;;;20.04;59.75;94112.41;5133792;27;20209;-72
2022/09/16 02:06:18;;;;;;;8.20;2.58;;;;;;;20.02;59.88;94101.00;5133996;27;20265;-73
2022/09/16 02:08:52;;;;;;;10.77;2.08;;;;;;;20.14;59.28;94122.56;5133594;27;20601;-72
2022/09/16 02:11:20;;;;;;;3.28;1.67;;;;;;;20.24;58.75;94116.22;5120618;27;20189;-71
2022/09/16 02:13:52;;;;;;;8.85;1.73;;;;;;;20.32;58.60;94095.75;5133622;27;20600;-73
2022/09/16 02:16:25;;;;;;;5.93;2.05;;;;;;;20.28;59.37;94083.97;5133709;27;20258;-74
2022/09/16 02:18:58;;;;;;;8.00;1.77;;;;;;;20.28;59.10;94088.69;5133222;27;20798;-73
2022/09/16 02:21:27;;;;;;;7.45;2.30;;;;;;;20.17;59.58;94105.25;5133681;27;20196;-74
2022/09/16 02:23:57;;;;;;;5.80;2.20;;;;;;;20.17;59.61;94102.50;5133603;27;20365;-74
2022/09/16 02:26:29;;;;;;;5.05;1.90;;;;;;;20.17;59.62;94105.25;5133451;27;20189;-74
2022/09/16 02:28:58;;;;;;;5.78;1.77;;;;;;;20.07;60.12;94111.59;5132520;27;20212;-73
2022/09/16 02:31:32;;;;;;;4.45;1.80;;;;;;;19.97;60.49;94095.94;5132642;27;20201;-73
2022/09/16 02:34:06;;;;;;;4.22;1.55;;;;;;;19.98;59.71;94122.25;5119179;27;20205;-74
2022/09/16 02:36:35;;;;;;;7.00;1.48;;;;;;;20.01;59.93;94091.97;5133364;27;20189;-73
2022/09/16 02:39:07;;;;;;;5.57;1.75;;;;;;;20.05;59.43;94114.75;5133208;27;20266;-74
2022/09/16 02:41:34;;;;;;;3.28;1.58;;;;;;;19.90;60.65;94124.25;5132604;27;20193;-73
2022/09/16 02:44:02;;;;;;;3.60;1.80;;;;;;;19.63;61.58;94121.19;5133042;27;20205;-72
2022/09/16 02:46:39;;;;;;;5.03;1.95;;;;;;;19.85;60.60;94121.91;5132750;27;20694;-72
2022/09/16 02:49:15;;;;;;;10.93;2.15;;;;;;;19.65;61.96;94116.09;5121493;27;20739;-73
2022/09/16 02:51:50;;;;;;;6.15;1.77;;;;;;;19.59;62.20;94128.66;5131128;27;20220;-73
2022/09/16 02:54:25;;;;;;;8.63;2.10;;;;;;;19.57;62.04;94128.28;5131800;27;20220;-73
2022/09/16 02:56:56;;;;;;;3.08;1.50;;;;;;;19.66;61.51;94119.63;5131690;27;20469;-73
2022/09/16 02:59:24;;;;;;;6.93;1.60;;;;;;;19.89;60.54;94122.69;5132059;27;20219;-73
2022/09/16 03:01:51;;;;;;;6.35;1.85;;;;;;;19.82;60.94;94128.97;5131222;27;20617;-73
2022/09/16 03:04:20;;;;;;;6.95;1.42;;;;;;;19.98;60.16;94122.25;5131923;27;20204;-74
2022/09/16 03:06:48;;;;;;;3.95;1.92;;;;;;;19.83;61.32;94147.03;5131283;27;20663;-74
2022/09/16 03:09:17;;;;;;;2.72;1.60;;;;;;;19.79;61.73;94146.28;5131810;27;20257;-74
2022/09/16 03:12:06;;;;;;;6.03;1.95;;;;;;;19.66;62.33;94139.66;5130837;27;20288;-73
2022/09/16 03:14:51;;;;;;;3.88;1.92;;;;;;;19.64;61.61;94144.75;5131833;27;20212;-72
2022/09/16 03:17:38;;;;;;;5.47;1.98;;;;;;;19.78;61.40;94155.72;5130687;27;20247;-73
2022/09/16 03:20:16;;;;;;;5.57;2.03;;;;;;;19.66;62.14;94152.59;5131290;27;20208;-73
2022/09/16 03:22:50;;;;;;;3.75;1.67;;;;;;;19.75;61.79;94150.22;5131971;27;20193;-74
2022/09/16 03:25:28;;;;;;;3.95;1.75;;;;;;;19.78;61.52;94150.22;5132267;27;20252;-74
2022/09/16 03:28:01;;;;;;;6.57;2.15;;;;;;;19.85;61.38;94149.38;5131982;27;20185;-73
2022/09/16 03:30:33;;;;;;;7.65;2.17;;;;;;;19.86;63.15;94149.00;5130851;27;20248;-73
2022/09/16 03:33:05;;;;;;;3.10;1.70;;;;;;;19.78;62.12;94144.72;5130570;27;20211;-74
2022/09/16 03:35:39;;;;;;;23.85;11.68;;;;;;;19.73;62.60;94136.09;5130086;27;20221;-74
2022/09/16 03:38:08;;;;;;;9.57;5.55;;;;;;;19.72;63.22;94134.50;5130317;27;20424;-73
2022/09/16 03:40:36;;;;;;;4.78;2.05;;;;;;;19.68;64.23;94134.53;5130425;27;20201;-74
2022/09/16 03:43:10;;;;;;;9.52;2.03;;;;;;;19.55;64.02;94144.38;5129797;27;20238;-75
2022/09/16 03:45:39;;;;;;;7.90;2.28;;;;;;;19.57;64.19;94122.78;5129906;27;20646;-73
2022/09/16 03:48:06;;;;;;;6.55;2.00;;;;;;;19.54;64.78;94112.59;5131428;27;20204;-72
2022/09/16 03:50:35;;;;;;;9.60;2.85;;;;;;;19.38;65.09;94103.97;5131917;27;20254;-74
2022/09/16 03:53:02;;;;;;;7.40;2.67;;;;;;;19.32;65.66;94116.53;5130349;27;20224;-74
2022/09/16 03:55:29;;;;;;;4.53;2.25;;;;;;;19.06;66.97;94120.50;5130276;27;20232;-74
2022/09/16 03:57:56;;;;;;;13.55;3.05;;;;;;;19.07;67.08;94111.88;5131115;27;20205;-74
2022/09/16 04:00:23;;;;;;;6.60;2.50;;;;;;;18.97;67.15;94118.16;5131087;27;20201;-72
2022/09/16 04:02:50;;;;;;;6.97;1.88;;;;;;;18.99;66.57;94121.31;5127517;27;20212;-74
2022/09/16 04:05:17;;;;;;;6.55;2.30;;;;;;;18.99;67.07;94126.78;5130638;27;20592;-74
2022/09/16 04:07:45;;;;;;;7.22;2.40;;;;;;;19.05;66.28;94152.66;5128984;27;20419;-75
2022/09/16 04:10:12;;;;;;;6.72;2.42;;;;;;;19.01;66.89;94176.56;5130491;27;20573;-74
2022/09/16 04:12:39;;;;;;;3.13;1.83;;;;;;;18.99;66.73;94176.22;5130331;27;20197;-73
2022/09/16 04:15:06;;;;;;;6.22;2.25;;;;;;;19.02;66.48;94175.41;5129694;27;20229;-73
2022/09/16 04:17:34;;;;;;;4.97;2.17;;;;;;;19.06;66.78;94172.66;5130792;27;20221;-73
2022/09/16 04:20:01;;;;;;;5.30;2.45;;;;;;;19.10;66.06;94165.22;5130752;27;20208;-73
2022/09/16 04:22:29;;;;;;;11.88;4.72;;;;;;;19.14;66.60;94166.75;5130219;27;20212;-73
2022/09/16 04:24:58;;;;;;;10.88;4.47;;;;;;;19.10;66.77;94171.50;5130699;27;20200;-72
2022/09/16 04:27:25;;;;;;;16.77;5.60;;;;;;;19.02;67.09;94189.13;5130015;27;20197;-73
2022/09/16 04:29:52;;;;;;;7.47;2.15;;;;;;;18.96;67.84;94187.97;5129529;27;20533;-72
2022/09/16 04:32:18;;;;;;;8.30;2.50;;;;;;;18.95;67.77;94180.91;5129478;27;20671;-74
2022/09/16 04:34:45;;;;;;;12.18;2.70;;;;;;;18.97;67.50;94186.78;5129696;27;20254;-73
2022/09/16 04:37:12;;;;;;;4.35;1.88;;;;;;;18.78;67.85;94187.16;5129635;27;20610;-72
2022/09/16 04:39:39;;;;;;;5.45;2.55;;;;;;;18.99;67.25;94178.16;5130130;27;20679;-73
2022/09/16 04:42:11;;;;;;;7.63;2.70;;;;;;;19.11;66.57;94161.28;5129099;27;20424;-75
2022/09/16 04:44:38;;;;;;;6.55;2.42;;;;;;;19.32;66.15;94171.47;5129344;27;20281;-74
2022/09/16 04:47:05;;;;;;;8.18;2.60;;;;;;;19.37;66.85;94176.56;5128857;27;20702;-73
2022/09/16 04:49:32;;;;;;;6.82;2.08;;;;;;;19.38;65.99;94180.88;5129718;27;20248;-74
2022/09/16 04:51:58;;;;;;;8.18;2.55;;;;;;;19.54;65.48;94181.28;5130502;28;20225;-73
2022/09/16 04:54:25;;;;;;;11.02;2.67;;;;;;;20.02;63.90;94181.53;5128994;28;20193;-74
2022/09/16 04:56:52;;;;;;;14.65;3.10;;;;;;;20.69;62.00;94174.16;5132772;27;20200;-74
2022/09/16 04:59:20;;;;;;;10.32;2.90;;;;;;;21.15;60.63;94174.63;5137032;27;20201;-74
2022/09/16 05:01:47;;;;;;;8.10;2.65;;;;;;;21.52;60.42;94179.44;5137278;27;20223;-74
2022/09/16 05:04:14;;;;;;;6.95;2.40;;;;;;;22.35;58.72;94166.34;5136768;27;20552;-74
2022/09/16 05:06:43;;;;;;;6.57;2.72;;;;;;;23.09;56.54;94164.53;5136842;27;20200;-73
2022/09/16 05:09:11;;;;;;;7.25;2.58;;;;;;;23.86;54.59;94167.16;5136835;27;20562;-73
2022/09/16 05:11:40;;;;;;;9.65;3.00;;;;;;;24.64;51.72;94157.28;5137119;27;20238;-73
2022/09/16 05:14:10;;;;;;;12.00;2.72;;;;;;;25.33;49.92;94155.31;5136875;27;20288;-74
2022/09/16 05:16:38;;;;;;;14.05;3.90;;;;;;;25.94;48.01;94149.03;5135701;27;20220;-74
2022/09/16 05:19:05;;;;;;;17.10;3.08;;;;;;;26.08;46.62;94147.88;5136477;27;20896;-74
2022/09/16 05:21:34;;;;;;;11.27;3.58;;;;;;;26.56;47.05;94135.78;5136959;27;20499;-74
2022/09/16 05:24:03;;;;;;;10.85;3.22;;;;;;;27.67;44.75;94130.34;5136574;27;20648;-73
2022/09/16 05:26:34;;;;;;;12.35;3.20;;;;;;;28.82;42.19;94125.81;5136297;27;20566;-72
2022/09/16 05:29:02;;;;;;;14.10;3.85;;;;;;;29.52;41.00;94113.78;5135700;27;20196;-73
2022/09/16 05:31:31;;;;;;;20.98;3.20;;;;;;;29.80;39.83;94116.63;5135550;27;20284;-72
2022/09/16 05:34:00;;;;;;;16.60;3.15;;;;;;;30.14;38.51;94124.75;5135826;27;20667;-72
2022/09/16 05:36:31;;;;;;;17.70;2.78;;;;;;;30.60;37.41;94122.72;5135727;27;20251;-72
2022/09/16 05:38:58;;;;;;;5.45;2.22;;;;;;;30.25;38.81;94129.88;5136461;27;20196;-73
2022/09/16 05:41:26;;;;;;;9.60;2.60;;;;;;;29.72;38.54;94124.53;5136339;27;20204;-73
2022/09/16 05:43:56;;;;;;;7.07;2.47;;;;;;;28.70;41.12;94121.81;5136743;27;20602;-73
2022/09/16 05:46:24;;;;;;;10.98;3.10;;;;;;;28.36;42.00;94119.16;5136130;27;20339;-72
2022/09/16 05:48:51;;;;;;;17.27;3.13;;;;;;;28.22;42.39;94121.22;5136196;27;20719;-74
2022/09/16 05:51:21;;;;;;;10.73;2.90;;;;;;;28.73;41.15;94126.47;5136579;27;20224;-72
2022/09/16 05:53:49;;;;;;;13.55;2.95;;;;;;;29.47;39.65;94117.22;5136441;27;20621;-74
2022/09/16 05:56:18;;;;;;;20.95;3.05;;;;;;;30.05;37.19;94116.38;5136884;27;20293;-73
2022/09/16 05:58:46;;;;;;;11.95;2.55;;;;;;;30.81;36.97;94120.16;5136145;27;20254;-73
2022/09/16 06:01:14;;;;;;;10.50;2.67;;;;;;;31.47;34.38;94123.78;5136779;27;20575;-73
2022/09/16 06:03:43;;;;;;;12.75;2.38;;;;;;;31.56;33.92;94112.56;5136268;27;20254;-74
2022/09/16 06:06:14;;;;;;;11.68;2.67;;;;;;;31.72;34.21;94114.16;5135890;27;21189;-73
2022/09/16 06:08:42;;;;;;;7.22;2.90;;;;;;;31.52;33.09;94117.53;5131890;27;20754;-73
2022/09/16 06:11:10;;;;;;;5.90;2.63;;;;;;;32.35;32.08;94121.34;5132827;27;20723;-73
2022/09/16 06:13:38;;;;;;;5.45;2.03;;;;;;;32.43;31.58;94111.28;5133172;27;20209;-73
2022/09/16 06:16:07;;;;;;;6.93;2.47;;;;;;;32.31;31.83;94109.53;5132877;27;20233;-73
2022/09/16 06:18:35;;;;;;;7.47;2.22;;;;;;;31.23;33.06;94117.38;5132596;27;20253;-73
2022/09/16 06:21:05;;;;;;;7.43;2.28;;;;;;;30.51;34.03;94113.53;5132832;27;20205;-73
2022/09/16 06:23:32;;;;;;;7.95;2.20;;;;;;;29.49;34.88;94131.50;5132547;27;20201;-73
2022/09/16 06:26:01;;;;;;;5.07;1.95;;;;;;;29.13;35.60;94115.38;5132567;27;20286;-72
2022/09/16 06:28:29;;;;;;;8.35;2.47;;;;;;;28.78;37.17;94128.69;5133055;27;20201;-72
2022/09/16 06:31:04;;;;;;;7.95;2.00;;;;;;;28.58;37.93;94123.47;5132514;27;20705;-73
2022/09/16 06:33:31;;;;;;;7.68;2.00;;;;;;;28.45;37.56;94122.75;5132870;27;20655;-72
2022/09/16 06:35:58;;;;;;;6.38;2.40;;;;;;;28.64;37.85;94118.09;5132603;27;20262;-73
2022/09/16 06:38:25;;;;;;;9.00;2.38;;;;;;;28.72;37.96;94122.13;5131951;27;20201;-72
2022/09/16 06:40:52;;;;;;;9.25;2.40;;;;;;;28.74;38.08;94128.03;5132487;27;20208;-72
2022/09/16 06:43:20;;;;;;;10.63;2.08;;;;;;;29.92;35.83;94121.31;5132236;27;20205;-73
2022/09/16 06:45:47;;;;;;;12.48;3.60;;;;;;;31.03;34.16;94115.88;5132393;27;20597;-72
2022/09/16 06:48:14;;;;;;;8.75;2.22;;;;;;;30.79;33.91;94123.44;5131570;27;20297;-72
2022/09/16 06:50:41;;;;;;;6.85;2.30;;;;;;;30.26;34.34;94121.00;5131971;27;20229;-72
2022/09/16 06:53:08;;;;;;;6.85;2.20;;;;;;;29.57;36.58;94127.16;5132181;27;20205;-73
2022/09/16 06:55:34;;;;;;;9.45;2.35;;;;;;;30.20;35.51;94127.72;5132229;27;20718;-73
2022/09/16 06:58:02;;;;;;;8.77;2.83;;;;;;;31.09;34.38;94116.03;5132266;27;20293;-73
2022/09/16 07:00:30;;;;;;;10.82;2.30;;;;;;;31.46;32.14;94119.44;5132149;27;20205;-73
2022/09/16 07:02:56;;;;;;;7.00;2.33;;;;;;;31.46;31.62;94119.44;5131533;27;20344;-73
2022/09/16 07:05:24;;;;;;;10.18;2.22;;;;;;;31.35;31.77;94117.16;5132335;27;20264;-73
2022/09/16 07:07:51;;;;;;;9.70;2.65;;;;;;;31.60;32.27;94118.72;5131655;27;20209;-73
2022/09/16 07:10:18;;;;;;;10.32;2.88;;;;;;;32.08;32.02;94129.97;5131643;27;20204;-73
2022/09/16 07:12:45;;;;;;;9.15;2.25;;;;;;;32.04;31.45;94123.75;5131791;27;20204;-72
2022/09/16 07:15:12;;;;;;;7.20;2.22;;;;;;;32.07;31.11;94117.19;5131479;27;20221;-72
2022/09/16 07:17:40;;;;;;;15.13;3.20;;;;;;;31.55;33.27;94133.41;5131721;27;20583;-74
2022/09/16 07:20:07;;;;;;;7.32;2.15;;;;;;;31.09;32.96;94130.81;5129195;27;20656;-73
2022/09/16 07:22:34;;;;;;;8.18;2.42;;;;;;;29.93;34.58;94125.66;5131891;27;20253;-73
2022/09/16 07:25:01;;;;;;;10.68;2.40;;;;;;;29.29;35.34;94137.44;5131017;27;20601;-74
2022/09/16 07:27:30;;;;;;;5.20;2.50;;;;;;;28.46;37.27;94129.13;5130655;27;20209;-73
2022/09/16 07:29:56;;;;;;;8.38;2.47;;;;;;;28.17;37.69;94132.13;5130451;27;20208;-73
2022/09/16 07:32:23;;;;;;;12.00;2.80;;;;;;;27.63;38.92;94129.66;5130575;27;20555;-73
2022/09/16 07:34:52;;;;;;;7.18;1.83;;;;;;;27.52;38.69;94125.22;5130973;27;20268;-73
2022/09/16 07:37:20;;;;;;;7.93;2.47;;;;;;;28.33;38.04;94140.34;5131302;27;20236;-73
2022/09/16 07:39:49;;;;;;;12.88;3.03;;;;;;;28.75;37.96;94126.81;5130977;27;20216;-73
2022/09/16 07:42:16;;;;;;;3.85;2.25;;;;;;;29.26;37.80;94113.25;5131514;27;20250;-74
2022/09/16 07:44:43;;;;;;;6.75;2.10;;;;;;;28.77;37.37;94104.81;5130763;27;20205;-73
2022/09/16 07:47:09;;;;;;;14.13;2.30;;;;;;;27.65;38.93;94099.38;5131223;27;20205;-74
2022/09/16 07:49:36;;;;;;;10.32;2.50;;;;;;;27.88;38.44;94098.97;5130297;27;20664;-74
2022/09/16 07:52:05;;;;;;;11.55;2.30;;;;;;;27.94;38.17;94099.94;5131007;27;20210;-74
2022/09/16 07:54:31;;;;;;;5.85;2.38;;;;;;;28.05;38.37;94100.34;5130699;27;20276;-73
2022/09/16 07:56:59;;;;;;;12.07;2.20;;;;;;;28.21;37.53;94102.97;5130910;27;20790;-72
2022/09/16 07:59:26;;;;;;;6.93;2.15;;;;;;;28.24;37.70;94107.63;5130775;27;20205;-73
2022/09/16 08:01:53;;;;;;;11.32;3.05;;;;;;;28.23;38.29;94100.50;5130556;27;20266;-72
2022/09/16 08:04:20;;;;;;;7.95;2.20;;;;;;;28.39;37.79;94087.59;5130557;27;20197;-73
2022/09/16 08:06:48;;;;;;;6.25;2.30;;;;;;;28.53;37.44;94095.41;5130509;27;20295;-73
2022/09/16 08:09:16;;;;;;;8.73;2.85;;;;;;;28.63;37.67;94085.84;5130427;27;20720;-74
2022/09/16 08:11:43;;;;;;;6.30;2.40;;;;;;;28.10;38.36;94085.84;5130740;27;20257;-74
2022/09/16 08:14:10;;;;;;;6.65;2.25;;;;;;;28.19;38.16;94093.50;5130321;27;20659;-72
2022/09/16 08:16:37;;;;;;;9.65;2.60;;;;;;;28.84;37.38;94085.03;5130055;27;20699;-73
2022/09/16 08:19:04;;;;;;;7.15;2.33;;;;;;;28.64;37.91;94076.25;5130491;27;20201;-73
2022/09/16 08:21:31;;;;;;;9.63;2.95;;;;;;;28.78;37.58;94072.91;5129697;27;20216;-73
2022/09/16 08:23:58;;;;;;;7.70;2.85;;;;;;;28.75;37.30;94079.41;5130342;27;20332;-73
2022/09/16 08:26:26;;;;;;;6.80;2.50;;;;;;;28.84;37.85;94065.53;5130706;27;20197;-73
2022/09/16 08:28:53;;;;;;;10.80;2.78;;;;;;;29.27;37.19;94069.38;5130630;27;20493;-73
2022/09/16 08:31:20;;;;;;;9.65;2.78;;;;;;;29.25;38.01;94063.47;5130171;27;20308;-73
2022/09/16 08:33:48;;;;;;;7.43;2.67;;;;;;;29.35;36.07;94076.22;5130373;27;20208;-73
2022/09/16 08:36:16;;;;;;;7.32;2.72;;;;;;;29.72;35.80;94063.09;5130177;27;20243;-73
2022/09/16 08:38:44;;;;;;;10.88;3.00;;;;;;;30.13;35.46;94056.13;5129645;27;20631;-73
2022/09/16 08:41:36;;;;;;;12.13;2.67;;;;;;;29.93;34.77;94058.63;5130340;27;20208;-73
2022/09/16 08:44:14;;;;;;;9.02;2.30;;;;;;;29.86;34.67;94042.16;5118944;27;20201;-74
2022/09/16 08:46:48;;;;;;;13.75;2.70;;;;;;;30.16;35.59;94041.22;5130322;27;20208;-73
2022/09/16 08:49:21;;;;;;;7.68;2.10;;;;;;;29.73;35.21;94038.75;5129904;27;20700;-74
2022/09/16 08:51:49;;;;;;;11.45;2.35;;;;;;;29.48;35.84;94037.81;5128966;27;20225;-73
2022/09/16 08:54:27;;;;;;;9.40;2.80;;;;;;;29.76;35.85;94026.66;5128498;28;20205;-73
2022/09/16 08:56:59;;;;;;;8.45;3.03;;;;;;;30.00;35.61;94035.97;5130237;28;20621;-73
2022/09/16 08:59:30;;;;;;;12.90;3.17;;;;;;;29.67;36.09;94030.97;5130201;28;20205;-73
2022/09/16 09:02:06;;;;;;;11.73;2.70;;;;;;;29.28;36.73;94048.59;5130111;28;20246;-73
2022/09/16 09:04:34;;;;;;;10.30;2.85;;;;;;;28.55;37.74;94053.94;5130116;27;20200;-73
2022/09/16 09:07:11;;;;;;;10.27;2.70;;;;;;;28.29;38.06;94044.97;5130139;27;20249;-73
2022/09/16 09:09:50;;;;;;;9.20;2.72;;;;;;;28.18;39.05;94053.72;5130063;28;20199;-73
2022/09/16 09:12:29;;;;;;;9.05;2.70;;;;;;;28.05;38.93;94050.19;5129892;28;20260;-73
2022/09/16 09:15:07;;;;;;;7.97;2.67;;;;;;;28.19;39.97;94060.84;5129425;28;20262;-72
2022/09/16 09:17:46;;;;;;;9.77;2.70;;;;;;;28.42;39.52;94062.38;5129980;28;20277;-73
2022/09/16 09:20:25;;;;;;;13.23;3.17;;;;;;;28.83;39.52;94055.63;5130072;28;20193;-72
2022/09/16 09:23:07;;;;;;;11.43;2.42;;;;;;;28.90;40.15;94057.34;5117156;28;20204;-73
2022/09/16 09:25:43;;;;;;;12.05;2.80;;;;;;;28.46;38.35;94051.06;5129844;28;20185;-75
2022/09/16 09:28:42;;;;;;;12.65;2.83;;;;;;;28.17;39.43;94052.13;5130115;28;20197;-75
2022/09/16 09:31:18;;;;;;;11.43;3.05;;;;;;;28.04;39.75;94047.88;5130488;28;20297;-73
2022/09/16 09:33:53;;;;;;;13.18;2.88;;;;;;;27.95;39.11;94046.59;5130159;28;20208;-76
2022/09/16 09:36:43;;;;;;;14.10;3.22;;;;;;;27.94;40.54;94044.25;5129760;28;20647;-74
2022/09/16 09:39:46;;;;;;;10.32;3.55;;;;;;;27.67;40.62;94044.03;5129913;28;20197;-74
2022/09/16 09:42:20;;;;;;;6.82;3.00;;;;;;;28.00;41.27;94050.81;5113938;27;20209;-73
2022/09/16 09:44:56;;;;;;;10.35;3.20;;;;;;;28.27;39.64;94056.56;5132957;27;20254;-73
2022/09/16 09:47:26;;;;;;;10.05;3.10;;;;;;;28.45;39.04;94066.25;5133463;27;20597;-74
2022/09/16 09:49:57;;;;;;;7.40;2.78;;;;;;;28.60;38.91;94067.25;5133044;27;20238;-73
2022/09/16 09:52:31;;;;;;;8.63;3.47;;;;;;;28.61;38.90;94063.22;5132874;27;20201;-74
2022/09/16 09:55:06;;;;;;;12.05;2.92;;;;;;;28.90;39.98;94066.50;5132692;27;20501;-73
2022/09/16 09:57:39;;;;;;;9.45;3.22;;;;;;;28.52;39.71;94060.41;5133770;27;20216;-76
2022/09/16 10:00:14;;;;;;;10.10;3.17;;;;;;;27.75;41.20;94076.72;5133731;27;20242;-78
2022/09/16 10:02:43;;;;;;;10.07;3.58;;;;;;;27.25;41.99;94077.66;5133196;27;20197;-73
2022/09/16 10:05:19;;;;;;;14.80;3.40;;;;;;;27.34;42.19;94086.06;5133026;27;20201;-79
2022/09/16 10:07:47;;;;;;;13.38;3.20;;;;;;;26.83;44.33;94104.78;5133319;27;20192;-72
2022/09/16 10:10:16;;;;;;;12.07;3.13;;;;;;;26.48;45.99;94103.91;5133432;27;20212;-72
2022/09/16 10:12:43;;;;;;;10.00;2.95;;;;;;;26.06;47.48;94117.78;5132665;27;20424;-74
2022/09/16 10:15:22;;;;;;;10.05;3.00;;;;;;;25.82;48.12;94130.34;5132658;27;20304;-74
2022/09/16 10:17:50;;;;;;;12.15;3.38;;;;;;;25.72;50.04;94139.72;5119915;27;20719;-74
2022/09/16 10:20:29;;;;;;;9.10;2.78;;;;;;;25.46;50.56;94172.84;5132722;27;20212;-73
2022/09/16 10:23:00;;;;;;;12.27;3.45;;;;;;;25.06;49.99;94199.16;5132963;27;20196;-73
2022/09/16 10:25:27;;;;;;;11.50;2.70;;;;;;;24.86;49.94;94215.81;5132540;27;20219;-78
2022/09/16 10:28:00;;;;;;;9.27;2.92;;;;;;;24.52;53.72;94234.72;5132239;27;20209;-75
2022/09/16 10:30:33;;;;;;;7.53;3.00;;;;;;;23.70;56.87;94263.88;5132716;27;20208;-74
2022/09/16 10:33:03;;;;;;;10.48;2.58;;;;;;;22.63;61.42;94303.25;5132941;27;20225;-72
2022/09/16 10:35:32;;;;;;;10.57;2.60;;;;;;;22.18;64.81;94322.63;5132397;27;20228;-75
2022/09/16 10:38:02;;;;;;;8.98;2.50;;;;;;;21.58;69.32;94307.38;5132636;27;20268;-73
2022/09/16 10:40:29;;;;;;;7.95;2.58;;;;;;;21.33;70.55;94309.50;5132709;27;20197;-74
2022/09/16 10:43:02;;;;;;;6.53;2.83;;;;;;;21.31;71.86;94319.38;5131991;27;20556;-74
2022/09/16 10:45:33;;;;;;;3.90;2.03;;;;;;;21.25;71.97;94306.03;5132825;27;20249;-76
2022/09/16 10:48:04;;;;;;;3.28;1.75;;;;;;;21.10;73.51;94309.25;5131860;27;20262;-75
2022/09/16 10:50:31;;;;;;;3.85;1.45;;;;;;;21.11;73.48;94316.31;5132288;27;20233;-74
2022/09/16 10:52:58;;;;;;;5.63;1.30;;;;;;;21.05;74.07;94324.22;5132337;27;20201;-73
2022/09/16 10:55:31;;;;;;;3.38;1.30;;;;;;;20.74;73.91;94308.66;5131659;27;20539;-75
2022/09/16 10:58:08;;;;;;;4.38;1.63;;;;;;;20.58;74.67;94282.34;5131864;27;20225;-75
2022/09/16 11:00:47;;;;;;;7.03;1.55;;;;;;;20.46;75.74;94274.56;5132108;27;20196;-75
2022/09/16 11:03:34;;;;;;;6.85;1.45;;;;;;;20.35;73.63;94243.50;5118864;27;20209;-74
2022/09/16 11:06:15;;;;;;;2.97;1.25;;;;;;;20.51;73.84;94238.34;5132278;27;20257;-76
2022/09/16 11:08:55;;;;;;;5.25;0.90;;;;;;;20.68;70.80;94222.16;5131607;27;20220;-77
2022/09/16 11:11:37;;;;;;;4.13;1.27;;;;;;;21.08;68.31;94212.44;5132167;27;20273;-75
2022/09/16 11:14:14;;;;;;;2.53;0.90;;;;;;;21.74;64.46;94173.69;5131950;27;20248;-75
2022/09/16 11:17:00;;;;;;;1.42;0.73;;;;;;;22.65;64.46;94169.09;5131776;27;20220;-77
2022/09/16 11:19:33;;;;;;;1.10;0.60;;;;;;;23.16;60.01;94145.06;5130997;27;20673;-78
2022/09/16 11:22:12;;;;;;;4.72;0.80;;;;;;;23.74;55.96;94148.44;5131167;27;20612;-77
2022/09/16 11:24:51;;;;;;;4.00;0.80;;;;;;;24.31;53.14;94136.28;5131331;27;20249;-77
2022/09/16 11:27:31;;;;;;;2.95;0.77;;;;;;;24.56;51.80;94122.66;5131319;27;20233;-75
2022/09/16 11:30:04;;;;;;;2.08;1.10;;;;;;;24.83;51.42;94113.34;5131099;27;20686;-74
2022/09/16 11:32:46;;;;;;;4.28;1.08;;;;;;;25.10;50.23;94086.19;5131488;27;20716;-74
2022/09/16 11:35:29;;;;;;;1.45;0.80;;;;;;;25.52;47.93;94083.56;5131442;27;20205;-75
2022/09/16 11:38:05;;;;;;;1.95;0.52;;;;;;;25.93;47.40;94072.53;5131365;27;20220;-77
2022/09/16 11:40:40;;;;;;;0.68;0.40;;;;;;;26.42;44.78;94066.75;5131222;27;20188;-76
2022/09/16 11:43:31;;;;;;;1.20;0.50;;;;;;;26.82;44.29;94067.88;5129839;27;20193;-74
2022/09/16 11:46:07;;;;;;;1.25;0.50;;;;;;;27.23;42.60;94055.06;5131491;27;20203;-74
2022/09/16 11:48:53;;;;;;;0.75;0.40;;;;;;;27.65;41.20;94052.06;5129621;27;20240;-73
2022/09/16 11:51:31;;;;;;;2.95;0.50;;;;;;;27.37;40.63;94057.34;5127504;27;20629;-74